createdAt,value
2018-10-15T00:05:06.141Z,11.80
2018-10-15T00:15:17.516Z,11.93
2018-10-15T00:25:21.043Z,12.90
2018-10-15T00:35:24.358Z,12.90
2018-10-15T00:45:27.689Z,13.03
2018-10-15T00:55:31.032Z,12.30
2018-10-15T01:05:34.373Z,11.93
2018-10-15T01:15:37.724Z,12.37
2018-10-15T01:25:41.063Z,13.00
2018-10-15T01:35:44.406Z,13.27
2018-10-15T01:45:48.692Z,14.80
2018-10-15T01:55:52.066Z,12.60
2018-10-15T02:05:56.001Z,12.50
2018-10-15T02:15:59.320Z,12.47
2018-10-15T02:26:02.764Z,13.77
2018-10-15T02:36:06.329Z,12.43
2018-10-15T02:46:09.712Z,13.00
2018-10-15T02:56:13.030Z,13.53
2018-10-15T03:06:16.373Z,12.60
2018-10-15T03:16:19.707Z,12.13
2018-10-15T03:26:23.652Z,11.67
2018-10-15T03:36:26.995Z,11.57
2018-10-15T03:46:30.383Z,12.27
2018-10-15T03:56:33.712Z,12.50
2018-10-15T04:06:37.045Z,12.27
2018-10-15T04:16:41.108Z,13.13
2018-10-15T04:26:44.688Z,13.50
2018-10-15T04:36:48.032Z,12.87
2018-10-15T04:46:54.344Z,14.63
2018-10-15T04:56:57.796Z,14.33
2018-10-15T05:07:01.120Z,14.77
2018-10-15T05:17:04.589Z,13.47
2018-10-15T05:27:08.326Z,13.43
2018-10-15T05:37:11.760Z,14.60
2018-10-15T05:47:15.164Z,14.37
2018-10-15T05:57:18.465Z,15.17
2018-10-15T06:07:21.792Z,15.40
2018-10-15T06:17:25.414Z,16.23
2018-10-15T06:27:28.910Z,16.57
2018-10-15T06:37:32.440Z,16.10
2018-10-15T06:47:36.013Z,18.57
2018-10-15T06:57:39.820Z,17.63
2018-10-15T07:07:44.021Z,17.37
2018-10-15T07:17:47.483Z,17.87
2018-10-15T07:27:51.337Z,19.33
2018-10-15T07:37:54.635Z,19.53
2018-10-15T07:47:57.868Z,18.17
2018-10-15T07:58:01.855Z,17.60
2018-10-15T08:08:05.628Z,17.97
2018-10-15T08:18:09.295Z,16.20
2018-10-15T08:28:12.955Z,16.57
2018-10-15T08:38:16.580Z,16.97
2018-10-15T08:48:19.949Z,16.33
2018-10-15T08:58:23.249Z,16.67
2018-10-15T09:08:26.656Z,15.80
2018-10-15T09:18:29.982Z,15.13
2018-10-15T09:28:33.330Z,15.03
2018-10-15T09:38:36.927Z,14.80
2018-10-15T09:48:41.186Z,13.60
2018-10-15T09:58:44.567Z,14.30
2018-10-15T10:08:47.923Z,13.03
2018-10-15T10:18:51.240Z,14.20
2018-10-15T10:28:54.733Z,13.73
2018-10-15T10:38:59.704Z,11.47
2018-10-15T10:49:03.187Z,11.00
2018-10-15T10:59:06.450Z,11.00
2018-10-15T11:19:18.741Z,10.73
2018-10-15T11:29:22.004Z,9.40
2018-10-15T11:49:43.182Z,9.30
2018-10-15T11:59:46.513Z,8.80
2018-10-15T12:09:49.852Z,10.23
2018-10-15T12:19:53.200Z,8.83
2018-10-15T12:29:56.905Z,8.10
2018-10-15T12:40:00.138Z,8.67
2018-10-15T12:50:04.077Z,8.30
2018-10-15T13:00:07.982Z,8.10
2018-10-15T13:10:11.519Z,7.67
2018-10-15T13:20:14.781Z,7.43
2018-10-15T13:30:18.181Z,7.27
2018-10-15T13:40:21.528Z,7.47
2018-10-15T13:50:24.810Z,7.67
2018-10-15T14:00:30.525Z,6.87
2018-10-15T14:10:33.958Z,6.93
2018-10-15T14:20:37.298Z,7.10
2018-10-15T14:30:40.621Z,6.47
2018-10-15T14:40:43.877Z,6.70
2018-10-15T14:50:47.143Z,7.10
2018-10-15T15:00:50.584Z,7.17
2018-10-15T15:21:14.216Z,7.73
2018-10-15T15:31:17.506Z,7.37
2018-10-15T15:41:20.822Z,7.70
2018-10-15T15:51:24.041Z,7.30
2018-10-15T16:01:28.099Z,8.40
2018-10-15T16:11:31.420Z,7.90
2018-10-15T16:21:34.960Z,8.37
2018-10-15T16:31:38.572Z,8.63
2018-10-15T16:41:42.754Z,8.53
2018-10-15T16:51:46.215Z,9.23
2018-10-15T17:01:51.762Z,8.70
2018-10-15T17:11:55.185Z,9.77
2018-10-15T17:21:58.921Z,8.97
2018-10-15T17:32:02.180Z,8.63
2018-10-15T17:42:05.855Z,9.30
2018-10-15T17:52:09.365Z,9.13
2018-10-15T18:02:12.705Z,9.50
2018-10-15T18:12:16.046Z,10.13
2018-10-15T18:22:19.402Z,9.53
2018-10-15T18:32:23.290Z,10.50
2018-10-15T18:42:26.775Z,10.20
2018-10-15T18:52:30.627Z,10.80
2018-10-15T19:02:34.044Z,10.43
2018-10-15T19:12:37.630Z,11.33
2018-10-15T19:22:41.125Z,10.83
2018-10-15T19:32:44.703Z,10.00
2018-10-15T19:42:47.966Z,9.97
2018-10-15T19:52:51.212Z,11.50
2018-10-15T20:02:54.665Z,10.80
2018-10-15T20:12:58.100Z,10.40
2018-10-15T20:23:01.372Z,11.33
2018-10-15T20:33:04.792Z,10.60
2018-10-15T20:43:08.435Z,10.87
2018-10-15T20:53:11.922Z,13.20
2018-10-15T21:03:15.380Z,11.90
2018-10-15T21:13:18.816Z,11.30
2018-10-15T21:23:25.049Z,11.77
2018-10-15T21:33:28.477Z,10.63
2018-10-15T21:43:31.737Z,11.77
2018-10-15T21:53:35.446Z,11.20
2018-10-15T22:03:38.798Z,11.87
2018-10-15T22:13:42.115Z,10.67
2018-10-15T22:23:45.256Z,11.10
2018-10-15T22:33:48.516Z,10.97
2018-10-15T22:43:51.759Z,10.87
2018-10-15T22:53:54.987Z,12.20
2018-10-15T23:03:58.212Z,11.90
2018-10-15T23:14:01.483Z,10.73
2018-10-15T23:24:04.888Z,10.57
2018-10-15T23:34:08.840Z,10.70
2018-10-15T23:44:12.116Z,10.77
2018-10-15T23:54:15.370Z,11.60
